Time;durP1;ratioP1;P1;durP2;ratioP2;P2;SDS_P1;SDS_P2;PMS_P1;PMS_P2;Temp;Humidity;BMP_temperature;BMP_pressure;BME280_temperature;BME280_humidity;BME280_pressure;Samples;Min_cycle;Max_cycle;Signal;HPM_P1;HPM_P2
2023/06/23 00:01:39;;;;;;;8.90;6.25;;;;;;;20.31;62.12;101707.88;4989393;28;115687;-71
2023/06/23 00:04:06;;;;;;;10.88;6.60;;;;;;;20.32;61.90;101709.56;4991934;28;113694;-71
2023/06/23 00:06:34;;;;;;;8.27;6.38;;;;;;;20.31;61.73;101702.50;4970111;28;123841;-71
2023/06/23 00:09:07;;;;;;;9.15;6.78;;;;;;;20.29;61.76;101709.81;5000844;28;123866;-71
2023/06/23 00:11:34;;;;;;;10.02;6.82;;;;;;;20.26;61.88;101699.28;5001221;28;115096;-72
2023/06/23 00:14:01;;;;;;;9.38;6.85;;;;;;;20.22;61.92;101705.84;4990741;28;114238;-72
2023/06/23 00:16:29;;;;;;;9.48;6.30;;;;;;;20.19;61.98;101708.75;4990572;28;123855;-72
2023/06/23 00:18:59;;;;;;;10.30;6.63;;;;;;;20.15;61.95;101718.00;4972065;28;124172;-71
2023/06/23 00:21:26;;;;;;;9.82;6.70;;;;;;;20.10;61.99;101721.03;4991246;28;114122;-71
2023/06/23 00:23:54;;;;;;;10.00;7.22;;;;;;;20.07;62.02;101720.41;4986572;28;113993;-72
2023/06/23 00:26:23;;;;;;;10.50;6.90;;;;;;;20.03;62.22;101728.69;5000248;28;123733;-71
2023/06/23 00:28:51;;;;;;;14.30;7.10;;;;;;;20.01;62.32;101736.00;4993967;28;124044;-71
2023/06/23 00:31:18;;;;;;;10.18;7.70;;;;;;;19.99;62.12;101735.25;4972028;28;114895;-71
2023/06/23 00:33:47;;;;;;;11.15;7.60;;;;;;;20.00;62.36;101747.75;4956500;28;115253;-71
2023/06/23 00:36:14;;;;;;;9.90;7.30;;;;;;;20.00;62.50;101742.34;4987512;28;124440;-72
2023/06/23 00:38:42;;;;;;;11.90;7.82;;;;;;;20.00;62.43;101742.34;4993761;28;125643;-71
2023/06/23 00:41:11;;;;;;;9.27;7.13;;;;;;;20.00;62.49;101749.53;4973092;28;113778;-71
2023/06/23 00:43:38;;;;;;;12.63;7.82;;;;;;;19.99;62.38;101762.13;4990216;28;114377;-72
2023/06/23 00:46:17;;;;;;;12.93;8.07;;;;;;;19.98;62.36;101762.25;4972707;28;123941;-71
2023/06/23 00:48:48;;;;;;;11.20;7.95;;;;;;;19.95;62.43;101771.41;4972008;28;124666;-71
2023/06/23 00:51:16;;;;;;;13.07;7.88;;;;;;;19.93;62.43;101773.34;4972281;28;114951;-72
2023/06/23 00:53:49;;;;;;;12.52;8.00;;;;;;;19.90;62.46;101770.84;4990451;28;113791;-71
2023/06/23 00:56:21;;;;;;;12.63;8.10;;;;;;;19.89;62.54;101760.19;4989710;28;123847;-72
2023/06/23 00:58:49;;;;;;;13.13;7.93;;;;;;;19.86;62.71;101761.28;4969436;28;124085;-71
2023/06/23 01:01:16;;;;;;;14.90;8.40;;;;;;;19.84;62.53;101773.97;4990179;28;114864;-71
2023/06/23 01:03:44;;;;;;;13.55;8.30;;;;;;;19.82;62.74;101779.44;4972625;28;114899;-72
2023/06/23 01:06:31;;;;;;;14.55;8.55;;;;;;;19.81;62.94;101790.31;4990032;28;124537;-72
2023/06/23 01:09:07;;;;;;;12.40;7.88;;;;;;;19.80;62.88;101783.22;4965194;28;124111;-71
2023/06/23 01:11:41;;;;;;;11.65;8.63;;;;;;;19.78;62.85;101786.00;4989944;28;113916;-71
2023/06/23 01:14:23;;;;;;;12.35;8.23;;;;;;;19.78;62.80;101785.16;4971939;28;112859;-71
2023/06/23 01:16:58;;;;;;;12.63;8.50;;;;;;;19.74;62.84;101778.25;4963978;28;123938;-72
2023/06/23 01:19:40;;;;;;;14.07;9.05;;;;;;;19.72;62.89;101780.16;4967972;28;122785;-71
2023/06/23 01:22:14;;;;;;;12.77;8.52;;;;;;;19.67;62.87;101782.31;4984108;28;114620;-71
2023/06/23 01:25:09;;;;;;;13.15;8.63;;;;;;;19.65;63.07;101791.31;4971981;28;113185;-71
2023/06/23 01:28:04;;;;;;;12.03;8.97;;;;;;;19.61;63.02;101813.16;4998412;28;122506;-72
2023/06/23 01:30:36;;;;;;;13.95;8.98;;;;;;;19.57;63.15;101804.44;4987744;28;123689;-72
2023/06/23 01:33:24;;;;;;;15.07;9.30;;;;;;;19.54;63.24;101810.00;4956175;28;114366;-71
2023/06/23 01:36:00;;;;;;;13.10;9.40;;;;;;;19.53;63.25;101813.66;4978193;28;114344;-71
2023/06/23 01:38:32;;;;;;;17.55;10.10;;;;;;;19.52;63.30;101820.00;4956694;28;123471;-71
2023/06/23 01:41:01;;;;;;;16.20;9.68;;;;;;;19.51;63.46;101826.31;4988913;28;124627;-72
2023/06/23 01:43:31;;;;;;;13.95;10.45;;;;;;;19.51;63.45;101822.78;4989386;28;114480;-71
2023/06/23 01:46:03;;;;;;;14.10;9.82;;;;;;;19.51;63.78;101837.06;4971572;28;114492;-71
2023/06/23 01:48:34;;;;;;;13.93;10.82;;;;;;;19.51;63.84;101839.75;4985033;28;124099;-71
2023/06/23 01:51:03;;;;;;;16.15;10.45;;;;;;;19.51;63.90;101834.38;4970699;28;123790;-71
2023/06/23 01:53:31;;;;;;;14.15;10.30;;;;;;;19.53;63.74;101829.75;4964163;28;113230;-71
2023/06/23 01:56:01;;;;;;;14.80;10.15;;;;;;;19.53;63.71;101829.75;4966019;28;113575;-72
2023/06/23 01:58:32;;;;;;;14.73;10.30;;;;;;;19.52;63.88;101836.13;4960599;28;123546;-71
2023/06/23 02:01:00;;;;;;;19.00;10.50;;;;;;;19.51;63.77;101837.06;4970431;28;123334;-71
2023/06/23 02:03:29;;;;;;;17.02;11.48;;;;;;;19.50;63.91;101838.06;4986339;28;114728;-72
2023/06/23 02:05:58;;;;;;;17.02;11.02;;;;;;;19.48;63.90;101845.34;5001230;28;113874;-71
2023/06/23 02:08:29;;;;;;;15.60;10.68;;;;;;;19.48;63.94;101849.84;4970504;28;123307;-71
2023/06/23 02:10:58;;;;;;;15.15;11.07;;;;;;;19.46;64.18;101855.34;4988558;28;125797;-71
2023/06/23 02:13:27;;;;;;;18.45;11.48;;;;;;;19.46;64.03;101855.34;4988762;28;116027;-72
2023/06/23 02:16:02;;;;;;;16.98;11.27;;;;;;;19.47;64.20;101857.06;4968591;28;114105;-72
2023/06/23 02:18:35;;;;;;;15.65;11.68;;;;;;;19.47;64.06;101857.06;4989062;28;124945;-71
2023/06/23 02:21:04;;;;;;;16.92;12.00;;;;;;;19.46;63.95;101860.72;4970224;28;123364;-71
2023/06/23 02:23:32;;;;;;;18.33;12.32;;;;;;;19.44;64.18;101862.66;4971000;28;113050;-71
2023/06/23 02:26:01;;;;;;;18.20;13.02;;;;;;;19.43;63.97;101855.53;4993039;28;113954;-71
2023/06/23 02:28:28;;;;;;;19.67;12.23;;;;;;;19.40;64.24;101861.09;4995059;28;123886;-71
2023/06/23 02:30:56;;;;;;;18.48;13.30;;;;;;;19.38;64.04;101863.91;4988951;28;124072;-72
2023/06/23 02:33:23;;;;;;;19.83;13.68;;;;;;;19.37;64.06;101869.38;4988835;28;114531;-72
2023/06/23 02:35:55;;;;;;;18.92;13.25;;;;;;;19.35;64.28;101871.31;4970766;28;113077;-72
2023/06/23 02:38:25;;;;;;;20.15;14.50;;;;;;;19.35;64.16;101879.38;4992739;28;124595;-71
2023/06/23 02:40:53;;;;;;;23.02;14.43;;;;;;;19.32;64.07;101879.56;5008341;28;123725;-71
2023/06/23 02:43:28;;;;;;;21.60;14.75;;;;;;;19.29;64.13;101874.38;4988020;28;114149;-71
2023/06/23 02:46:00;;;;;;;21.15;14.77;;;;;;;19.26;64.11;101887.06;4966823;28;112614;-72
2023/06/23 02:48:38;;;;;;;22.35;15.32;;;;;;;19.23;64.12;101876.53;4980698;28;123103;-71
2023/06/23 02:51:09;;;;;;;22.48;16.70;;;;;;;19.20;64.37;101887.47;4987929;28;124275;-71
2023/06/23 02:53:44;;;;;;;22.63;16.65;;;;;;;19.18;64.37;101889.38;4970541;28;114201;-71
2023/06/23 02:56:19;;;;;;;24.13;16.98;;;;;;;19.15;64.27;101900.31;4991302;28;112820;-71
2023/06/23 02:58:49;;;;;;;24.15;16.67;;;;;;;19.14;64.43;101898.59;4970780;28;124331;-72
2023/06/23 03:01:22;;;;;;;26.00;17.88;;;;;;;19.13;64.25;101902.25;4966816;28;124581;-71
2023/06/23 03:03:50;;;;;;;28.40;18.58;;;;;;;19.10;64.20;101907.81;4975735;28;115491;-72
2023/06/23 03:06:22;;;;;;;29.15;18.80;;;;;;;19.10;64.54;101913.19;4988148;28;115823;-72
2023/06/23 03:08:51;;;;;;;26.85;18.67;;;;;;;19.08;64.19;101916.94;4955174;28;99220;-72
2023/06/23 03:11:19;;;;;;;28.52;19.80;;;;;;;19.07;64.33;101924.13;4969967;28;124254;-71
2023/06/23 03:13:47;;;;;;;29.08;19.48;;;;;;;19.04;64.38;101929.69;5000907;28;114730;-71
2023/06/23 03:16:27;;;;;;;29.08;19.60;;;;;;;19.04;64.45;101929.69;4969733;28;113513;-71
2023/06/23 03:19:21;;;;;;;28.92;19.50;;;;;;;19.04;64.32;101935.06;4984020;28;124069;-71
2023/06/23 03:21:55;;;;;;;28.65;19.30;;;;;;;19.03;64.23;101934.19;4999980;28;123774;-71
2023/06/23 03:24:25;;;;;;;27.58;18.70;;;;;;;19.01;63.98;101936.13;4956737;28;113583;-71
2023/06/23 03:26:57;;;;;;;25.98;18.58;;;;;;;19.00;64.10;101938.91;4968647;28;115167;-71
2023/06/23 03:29:29;;;;;;;26.75;18.75;;;;;;;18.98;64.13;101940.81;4969296;28;123277;-72
2023/06/23 03:32:01;;;;;;;26.05;18.73;;;;;;;18.96;64.18;101942.75;4970038;28;122729;-71
2023/06/23 03:34:47;;;;;;;28.48;18.05;;;;;;;18.92;64.16;101941.22;4985204;28;114065;-71
2023/06/23 03:37:20;;;;;;;28.38;18.27;;;;;;;18.91;64.04;101944.84;4985672;28;113071;-72
2023/06/23 03:39:53;;;;;;;27.67;19.55;;;;;;;18.90;64.22;101948.50;4954079;28;123267;-71
2023/06/23 03:42:21;;;;;;;28.23;18.88;;;;;;;18.90;64.22;101953.88;4976556;28;123674;-72
2023/06/23 03:44:52;;;;;;;25.88;17.95;;;;;;;18.90;64.11;101964.59;4972681;28;113888;-72
2023/06/23 03:47:24;;;;;;;27.55;18.70;;;;;;;18.87;64.15;101965.63;4984709;28;114041;-72
2023/06/23 03:49:58;;;;;;;26.17;18.40;;;;;;;18.85;64.08;101971.13;4965558;28;123516;-71
2023/06/23 03:52:28;;;;;;;25.45;18.48;;;;;;;18.84;64.02;101972.06;4986201;28;124587;-72
2023/06/23 03:54:56;;;;;;;27.80;19.17;;;;;;;18.84;64.12;101966.72;4990484;28;115254;-71
2023/06/23 03:57:31;;;;;;;29.05;20.13;;;;;;;18.84;64.11;101961.34;4987657;28;115023;-72
2023/06/23 03:59:59;;;;;;;28.87;19.87;;;;;;;18.83;64.28;101964.13;4994391;28;123751;-71
2023/06/23 04:02:30;;;;;;;28.48;20.05;;;;;;;18.83;64.19;101970.34;5001434;28;123119;-72
2023/06/23 04:04:59;;;;;;;28.92;20.13;;;;;;;18.85;64.20;101967.56;4990109;28;113959;-71
2023/06/23 04:07:28;;;;;;;27.77;19.80;;;;;;;18.85;64.08;101979.19;4978813;28;113867;-72
2023/06/23 04:09:58;;;;;;;28.58;20.52;;;;;;;18.84;64.18;101965.84;4972048;28;123524;-72
2023/06/23 04:12:26;;;;;;;29.02;20.65;;;;;;;18.85;64.05;101968.44;4973160;28;123467;-72
2023/06/23 04:14:55;;;;;;;29.90;21.42;;;;;;;18.85;64.18;101968.44;4972401;28;113822;-72
2023/06/23 04:17:25;;;;;;;30.42;20.35;;;;;;;18.88;64.32;101977.25;4991019;28;113301;-71
2023/06/23 04:19:57;;;;;;;30.38;21.25;;;;;;;18.89;64.29;101968.25;4989022;28;124569;-72
2023/06/23 04:22:27;;;;;;;31.42;21.50;;;;;;;18.92;64.13;101978.78;4990705;28;124259;-72
2023/06/23 04:24:56;;;;;;;31.08;21.52;;;;;;;18.94;64.33;101987.63;4991155;28;113970;-71
2023/06/23 04:27:25;;;;;;;29.45;21.13;;;;;;;18.95;64.30;101986.63;4990904;28;113875;-72
2023/06/23 04:29:53;;;;;;;30.35;22.25;;;;;;;18.97;64.27;101993.66;4990638;28;123943;-72
2023/06/23 04:32:23;;;;;;;31.15;21.60;;;;;;;18.98;64.08;101989.16;4971414;28;126127;-72
2023/06/23 04:34:50;;;;;;;32.53;22.42;;;;;;;18.98;64.33;102003.41;4990876;28;115110;-70
2023/06/23 04:37:31;;;;;;;36.80;23.15;;;;;;;19.01;64.36;102015.81;4969838;28;114575;-72
2023/06/23 04:40:19;;;;;;;32.22;22.95;;;;;;;19.01;64.22;102015.81;4958647;28;123194;-72
2023/06/23 04:43:15;;;;;;;36.35;24.38;;;;;;;19.05;64.41;102022.72;4987954;28;124634;-71
2023/06/23 04:45:59;;;;;;;34.40;24.25;;;;;;;19.07;64.33;102026.16;4982117;28;115589;-71
2023/06/23 04:48:35;;;;;;;31.40;22.95;;;;;;;19.11;64.53;102022.31;4997126;28;115657;-72
2023/06/23 04:51:06;;;;;;;34.90;25.40;;;;;;;19.17;64.53;102027.31;4988939;28;125129;-72
2023/06/23 04:53:38;;;;;;;35.58;24.63;;;;;;;19.23;64.80;102032.31;4988989;28;125359;-71
2023/06/23 04:56:08;;;;;;;33.53;23.63;;;;;;;19.32;64.95;102030.00;4985906;28;113526;-71
2023/06/23 04:58:38;;;;;;;33.55;24.60;;;;;;;19.43;64.95;102032.88;4989996;28;114931;-72
2023/06/23 05:01:11;;;;;;;36.65;24.40;;;;;;;19.53;64.91;102031.31;4985326;28;124115;-72
2023/06/23 05:03:39;;;;;;;36.47;24.00;;;;;;;19.62;64.77;102033.41;4988371;28;123986;-72
2023/06/23 05:06:11;;;;;;;34.63;24.35;;;;;;;19.71;64.68;102036.47;4988364;28;114176;-72
2023/06/23 05:08:40;;;;;;;34.65;24.30;;;;;;;19.79;64.64;102047.63;4971427;28;113417;-72
2023/06/23 05:11:10;;;;;;;37.38;25.20;;;;;;;19.87;64.64;102042.59;4986260;28;123761;-72
2023/06/23 05:13:38;;;;;;;38.55;26.00;;;;;;;19.93;64.58;102042.22;4989140;28;124908;-72
2023/06/23 05:16:10;;;;;;;37.50;24.90;;;;;;;20.00;64.27;102038.19;4987256;28;114610;-71
2023/06/23 05:18:39;;;;;;;39.25;26.00;;;;;;;20.06;64.14;102052.16;5002763;28;114587;-72
2023/06/23 05:21:07;;;;;;;39.75;24.95;;;;;;;20.11;64.13;102056.28;4989103;28;124935;-72
2023/06/23 05:23:39;;;;;;;38.80;24.83;;;;;;;20.16;64.23;102058.66;4988975;28;123850;-72
2023/06/23 05:26:13;;;;;;;40.00;24.90;;;;;;;20.20;64.36;102050.28;4985796;28;114669;-72
2023/06/23 05:28:43;;;;;;;36.83;25.02;;;;;;;20.26;64.32;102054.38;4970329;28;114338;-72
2023/06/23 05:31:12;;;;;;;35.28;25.27;;;;;;;20.31;64.25;102063.03;4988543;28;124683;-71
2023/06/23 05:33:43;;;;;;;34.20;23.90;;;;;;;20.35;64.10;102064.53;4970846;28;124970;-71
2023/06/23 05:36:12;;;;;;;36.72;24.45;;;;;;;20.39;63.96;102066.06;4986368;28;114489;-72
2023/06/23 05:38:42;;;;;;;36.10;24.73;;;;;;;20.46;64.03;102071.03;4988935;28;114869;-72
2023/06/23 05:41:09;;;;;;;37.38;26.15;;;;;;;20.50;63.97;102064.47;4987709;28;124025;-72
2023/06/23 05:43:37;;;;;;;40.78;27.40;;;;;;;20.56;64.08;102072.13;4988780;28;125063;-72
2023/06/23 05:46:12;;;;;;;37.53;26.05;;;;;;;20.61;64.04;102075.41;4957484;28;113073;-72
2023/06/23 05:48:44;;;;;;;39.33;26.80;;;;;;;20.67;64.05;102079.53;4986251;28;113970;-72
2023/06/23 05:51:16;;;;;;;39.42;25.77;;;;;;;20.73;64.12;102079.94;4985940;28;123874;-72
2023/06/23 05:53:45;;;;;;;38.47;27.02;;;;;;;20.79;64.12;102090.31;4985063;28;123711;-71
2023/06/23 05:56:28;;;;;;;39.85;26.30;;;;;;;20.85;64.09;102089.03;4988497;28;114463;-71
2023/06/23 05:58:58;;;;;;;37.00;26.17;;;;;;;20.93;64.25;102088.50;4969293;28;113652;-72
2023/06/23 06:01:30;;;;;;;44.22;27.15;;;;;;;21.02;64.15;102095.97;4985306;28;124726;-72
2023/06/23 06:04:04;;;;;;;43.28;28.30;;;;;;;21.10;64.15;102098.13;4987017;28;123908;-72
2023/06/23 06:06:35;;;;;;;41.05;28.17;;;;;;;21.16;64.13;102093.13;4983790;28;114091;-72
2023/06/23 06:09:04;;;;;;;38.45;26.83;;;;;;;21.20;64.02;102105.44;4985617;28;113849;-71
2023/06/23 06:11:33;;;;;;;41.38;27.05;;;;;;;21.27;64.09;102100.47;4988133;28;124371;-72
2023/06/23 06:14:02;;;;;;;44.42;28.02;;;;;;;21.33;63.98;102104.56;4988014;28;123946;-71
2023/06/23 06:16:31;;;;;;;39.80;27.13;;;;;;;21.38;63.83;102107.81;4988420;28;114336;-72
2023/06/23 06:18:59;;;;;;;43.75;28.80;;;;;;;21.43;63.78;102111.03;4969693;28;117261;-72
2023/06/23 06:21:28;;;;;;;42.38;28.67;;;;;;;21.46;63.83;102121.63;4984971;28;124369;-71
2023/06/23 06:23:58;;;;;;;40.08;27.98;;;;;;;21.50;63.88;102128.53;4984387;28;124305;-72
2023/06/23 06:26:26;;;;;;;39.65;28.35;;;;;;;21.52;63.81;102125.72;4984264;28;115172;-72
2023/06/23 06:28:56;;;;;;;44.95;28.65;;;;;;;21.53;63.80;102131.00;4987171;28;115479;-72
2023/06/23 06:31:24;;;;;;;40.78;28.70;;;;;;;21.58;63.73;102142.31;4986946;28;124194;-72
2023/06/23 06:33:53;;;;;;;43.50;29.30;;;;;;;21.61;63.73;102141.25;4985047;28;123395;-71
2023/06/23 06:36:21;;;;;;;46.30;28.67;;;;;;;21.62;63.59;102139.41;4971800;28;113493;-72
2023/06/23 06:38:51;;;;;;;40.60;28.52;;;;;;;21.63;63.52;102143.84;4969104;28;114348;-72
2023/06/23 06:41:20;;;;;;;42.45;28.92;;;;;;;21.68;63.70;102147.06;4969118;28;124006;-72
2023/06/23 06:43:49;;;;;;;42.58;28.52;;;;;;;21.75;63.84;102142.94;4978484;28;124814;-72
2023/06/23 06:46:17;;;;;;;43.85;29.48;;;;;;;21.85;63.75;102144.03;4959845;28;113398;-72
2023/06/23 06:48:47;;;;;;;41.20;29.67;;;;;;;21.96;64.01;102151.31;4992976;28;113800;-72
2023/06/23 06:51:17;;;;;;;40.55;28.13;;;;;;;22.09;63.88;102156.69;4986911;28;124408;-72
2023/06/23 06:53:46;;;;;;;38.83;27.58;;;;;;;22.24;63.85;102160.97;4986697;28;124559;-72
2023/06/23 06:56:14;;;;;;;41.15;27.42;;;;;;;22.39;63.82;102150.03;4987826;28;113924;-72
2023/06/23 06:58:42;;;;;;;37.13;26.33;;;;;;;22.56;63.59;102155.03;4989317;28;114176;-72
2023/06/23 07:01:09;;;;;;;32.78;24.60;;;;;;;22.68;63.26;102154.13;4989392;28;123857;-72
2023/06/23 07:03:41;;;;;;;35.97;25.20;;;;;;;22.78;62.66;102153.44;4989686;28;124646;-72
2023/06/23 07:06:09;;;;;;;37.38;25.88;;;;;;;22.84;62.63;102166.47;4956204;28;113350;-72
2023/06/23 07:08:38;;;;;;;33.25;26.17;;;;;;;22.94;62.65;102165.66;4990164;28;114657;-72
2023/06/23 07:11:05;;;;;;;35.58;26.38;;;;;;;23.07;62.68;102165.56;4989178;28;124073;-72
2023/06/23 07:13:32;;;;;;;36.55;25.38;;;;;;;23.25;62.56;102167.84;4988664;28;124443;-72
2023/06/23 07:15:59;;;;;;;32.88;24.27;;;;;;;23.42;62.33;102175.50;4988429;28;115372;-72
2023/06/23 07:18:28;;;;;;;33.50;23.88;;;;;;;23.55;61.54;102185.38;4971677;28;113997;-72
2023/06/23 07:20:55;;;;;;;32.95;23.52;;;;;;;23.61;61.18;102185.72;4978030;28;123451;-72
2023/06/23 07:23:23;;;;;;;30.17;23.00;;;;;;;23.65;60.71;102186.34;4982380;28;124045;-72
2023/06/23 07:25:50;;;;;;;31.98;23.70;;;;;;;23.65;60.45;102186.34;5005449;28;114325;-72
2023/06/23 07:28:17;;;;;;;31.00;22.52;;;;;;;23.65;60.27;102180.94;4992593;28;114812;-72
2023/06/23 07:30:44;;;;;;;29.95;23.33;;;;;;;23.71;60.28;102185.84;4991121;28;124030;-72
2023/06/23 07:33:12;;;;;;;26.95;21.17;;;;;;;23.80;60.46;102179.75;4990837;28;124640;-72
2023/06/23 07:35:39;;;;;;;28.48;20.83;;;;;;;23.92;59.81;102187.84;4991710;28;113707;-72
2023/06/23 07:38:06;;;;;;;24.48;19.38;;;;;;;24.00;59.46;102191.66;4992389;28;114189;-72
2023/06/23 07:40:33;;;;;;;24.60;19.38;;;;;;;24.08;59.34;102188.34;4973758;28;123311;-73
2023/06/23 07:43:01;;;;;;;23.38;18.48;;;;;;;24.16;58.88;102191.28;4974213;28;123730;-72
2023/06/23 07:45:28;;;;;;;24.50;19.08;;;;;;;24.27;58.71;102188.56;4958021;28;113788;-72
2023/06/23 07:47:56;;;;;;;25.38;18.35;;;;;;;24.36;58.13;102192.34;5004931;28;114345;-73
2023/06/23 07:50:23;;;;;;;27.38;20.17;;;;;;;24.45;58.27;102186.19;5008458;28;124233;-72
2023/06/23 07:52:54;;;;;;;23.52;18.13;;;;;;;24.55;58.43;102186.31;4991817;28;123784;-72
2023/06/23 07:55:22;;;;;;;22.48;17.73;;;;;;;24.67;58.15;102190.69;4972623;28;114367;-72
2023/06/23 07:57:49;;;;;;;21.13;16.95;;;;;;;24.76;57.29;102188.22;4992786;28;113801;-73
2023/06/23 08:00:17;;;;;;;21.45;16.88;;;;;;;24.82;56.96;102187.69;4973398;28;123175;-73
2023/06/23 08:02:44;;;;;;;24.90;18.55;;;;;;;24.91;56.94;102192.31;4991985;28;123843;-72
2023/06/23 08:05:12;;;;;;;22.30;15.45;;;;;;;24.99;56.20;102195.22;4993779;28;115835;-72
2023/06/23 08:07:40;;;;;;;20.92;15.68;;;;;;;25.08;56.18;102192.75;4999195;28;114800;-72
2023/06/23 08:10:07;;;;;;;21.00;15.93;;;;;;;25.15;55.78;102183.09;5005881;28;125130;-71
2023/06/23 08:12:35;;;;;;;23.13;18.23;;;;;;;25.24;56.11;102194.03;5017034;28;124580;-71
2023/06/23 08:15:05;;;;;;;21.23;17.23;;;;;;;25.30;56.08;102192.66;5017165;28;115335;-72
2023/06/23 08:17:32;;;;;;;20.50;15.80;;;;;;;25.38;55.64;102190.13;5002071;28;113682;-71
2023/06/23 08:19:59;;;;;;;19.98;15.30;;;;;;;25.43;55.60;102193.31;5013086;28;125040;-72
2023/06/23 08:22:26;;;;;;;21.45;16.52;;;;;;;25.52;55.26;102196.19;5007718;28;123184;-73
2023/06/23 08:24:53;;;;;;;22.17;17.20;;;;;;;25.61;55.12;102207.09;5008133;28;114278;-72
2023/06/23 08:27:20;;;;;;;24.27;17.52;;;;;;;25.71;54.65;102200.88;5015685;28;114649;-72
2023/06/23 08:29:48;;;;;;;22.67;17.35;;;;;;;25.77;54.55;102211.22;4985599;28;122909;-72
2023/06/23 08:32:16;;;;;;;21.33;16.35;;;;;;;25.82;54.49;102203.50;5004203;28;123772;-73
2023/06/23 08:34:43;;;;;;;16.95;12.00;;;;;;;25.88;53.47;102207.50;4987383;28;113819;-73
2023/06/23 08:37:10;;;;;;;14.85;11.13;;;;;;;25.91;53.00;102212.69;4999582;28;114141;-73
2023/06/23 08:39:37;;;;;;;15.07;11.98;;;;;;;25.97;52.76;102212.16;5004398;28;123294;-73
2023/06/23 08:42:05;;;;;;;23.02;17.48;;;;;;;26.06;53.32;102210.50;5004614;28;123615;-73
2023/06/23 08:44:35;;;;;;;19.98;16.27;;;;;;;26.14;53.14;102219.66;5004780;28;113372;-72
2023/06/23 08:47:04;;;;;;;17.42;13.88;;;;;;;26.20;52.22;102213.69;5002193;28;113406;-72
2023/06/23 08:49:38;;;;;;;16.58;13.10;;;;;;;26.23;52.31;102213.41;5004745;28;124334;-72
2023/06/23 08:52:06;;;;;;;16.92;13.45;;;;;;;26.29;51.97;102222.84;5007805;28;124499;-72
2023/06/23 08:54:35;;;;;;;17.50;14.05;;;;;;;26.35;52.00;102216.88;4989379;28;113592;-73
2023/06/23 08:57:03;;;;;;;20.45;16.08;;;;;;;26.40;51.57;102225.44;4978562;28;114381;-73
2023/06/23 08:59:30;;;;;;;20.30;15.98;;;;;;;26.44;51.47;102226.03;4973843;28;122995;-73
2023/06/23 09:01:58;;;;;;;19.75;16.13;;;;;;;26.48;51.44;102227.47;4991187;28;124186;-73
2023/06/23 09:04:25;;;;;;;20.77;15.48;;;;;;;26.54;51.10;102226.03;5007490;28;114291;-73
2023/06/23 09:06:52;;;;;;;15.85;13.93;;;;;;;26.58;51.18;102239.22;5003428;28;114391;-73
2023/06/23 09:09:20;;;;;;;19.35;12.43;;;;;;;26.65;50.98;102241.41;4992026;28;124131;-73
2023/06/23 09:11:47;;;;;;;16.45;12.85;;;;;;;26.72;51.27;102245.28;4991207;28;123351;-73
2023/06/23 09:14:15;;;;;;;17.00;11.98;;;;;;;26.83;50.99;102247.88;4990895;28;113846;-73
2023/06/23 09:16:42;;;;;;;17.40;13.35;;;;;;;26.93;50.96;102254.16;4972686;28;112453;-73
2023/06/23 09:19:09;;;;;;;16.23;12.68;;;;;;;27.03;50.57;102258.75;4990349;28;123757;-72
2023/06/23 09:21:37;;;;;;;13.30;10.35;;;;;;;27.08;50.29;102254.59;4973239;28;124807;-72
2023/06/23 09:24:06;;;;;;;12.07;10.73;;;;;;;27.14;49.71;102250.44;4970576;28;114576;-72
2023/06/23 09:26:48;;;;;;;17.58;14.35;;;;;;;27.23;50.39;102260.47;4990713;28;113781;-72
2023/06/23 09:29:16;;;;;;;18.08;14.55;;;;;;;27.32;50.35;102265.06;4990719;28;124492;-72
2023/06/23 09:31:46;;;;;;;17.00;10.65;;;;;;;27.41;49.68;102262.47;4991124;28;124206;-75
2023/06/23 09:34:25;;;;;;;13.13;10.27;;;;;;;27.45;48.71;102259.34;4992030;28;113551;-75
2023/06/23 09:37:04;;;;;;;13.77;10.35;;;;;;;27.49;48.60;102260.75;4990163;28;114278;-72
2023/06/23 09:39:35;;;;;;;13.23;9.95;;;;;;;27.54;48.23;102263.91;4971515;28;124349;-72
2023/06/23 09:42:10;;;;;;;14.02;10.38;;;;;;;27.57;47.75;102268.19;4990367;28;124339;-72
2023/06/23 09:44:42;;;;;;;12.25;10.50;;;;;;;27.60;48.42;102273.34;4998933;28;114386;-72
2023/06/23 09:47:09;;;;;;;13.35;10.32;;;;;;;27.67;48.48;102263.59;5003062;28;114951;-73
2023/06/23 09:49:41;;;;;;;14.23;11.15;;;;;;;27.74;48.10;102264.72;4971703;28;123432;-74
2023/06/23 09:52:12;;;;;;;13.32;10.35;;;;;;;27.82;47.92;102271.28;4959109;28;123097;-74
2023/06/23 09:54:41;;;;;;;14.43;10.27;;;;;;;27.87;47.90;102268.97;4972897;28;113295;-74
2023/06/23 09:57:12;;;;;;;15.30;12.48;;;;;;;27.92;47.73;102272.16;4972493;28;114042;-72
2023/06/23 09:59:41;;;;;;;14.40;11.60;;;;;;;27.98;47.52;102274.28;4989992;28;124165;-74
2023/06/23 10:02:20;;;;;;;15.10;11.20;;;;;;;28.01;47.81;102271.28;4987995;28;123743;-73
2023/06/23 10:04:49;;;;;;;15.73;11.32;;;;;;;28.04;47.50;102270.94;4969477;28;113388;-73
2023/06/23 10:07:21;;;;;;;17.17;12.43;;;;;;;28.06;47.66;102268.94;4989811;28;113730;-74
2023/06/23 10:09:53;;;;;;;15.70;12.80;;;;;;;28.09;47.65;102268.66;4969764;28;123757;-73
2023/06/23 10:12:33;;;;;;;14.38;11.00;;;;;;;28.14;46.80;102268.19;4971266;28;124075;-73
2023/06/23 10:15:00;;;;;;;14.13;11.35;;;;;;;28.15;47.31;102268.03;4970184;28;114080;-73
2023/06/23 10:17:27;;;;;;;17.73;11.25;;;;;;;28.19;46.89;102256.84;4972763;28;113993;-75
2023/06/23 10:19:55;;;;;;;15.88;10.90;;;;;;;28.20;46.72;102264.88;5005284;28;123454;-73
2023/06/23 10:22:22;;;;;;;16.75;11.70;;;;;;;28.18;46.48;102266.91;4999962;28;123795;-73
2023/06/23 10:24:53;;;;;;;14.63;11.50;;;;;;;28.20;46.29;102269.44;4988967;28;113909;-73
2023/06/23 10:27:26;;;;;;;16.20;10.75;;;;;;;28.20;46.05;102258.56;4989251;28;113922;-73
2023/06/23 10:30:00;;;;;;;14.85;10.85;;;;;;;28.24;46.65;102266.28;4986627;28;124263;-73
2023/06/23 10:32:33;;;;;;;;;;;;;;;28.30;47.64;102259.38;4987030;28;123956;-73
2023/06/23 10:35:08;;;;;;;14.68;11.55;;;;;;;28.40;46.80;102276.53;4980950;28;116296;-73
2023/06/23 10:37:36;;;;;;;17.58;12.20;;;;;;;28.42;46.48;102269.06;4965387;28;114629;-74
2023/06/23 10:40:18;;;;;;;15.32;12.18;;;;;;;28.39;45.97;102263.91;4982361;28;124106;-73
2023/06/23 10:42:49;;;;;;;14.90;11.32;;;;;;;28.35;46.54;102259.78;4968744;28;124199;-73
2023/06/23 10:45:17;;;;;;;11.98;10.50;;;;;;;28.36;46.42;102264.22;4987796;28;115173;-74
2023/06/23 10:47:44;;;;;;;11.77;9.65;;;;;;;28.36;45.87;102266.94;5002528;28;113613;-73
2023/06/23 10:50:12;;;;;;;13.25;9.10;;;;;;;28.35;45.41;102274.25;4988518;28;125498;-73
2023/06/23 10:52:40;;;;;;;11.85;9.75;;;;;;;28.37;45.63;102265.94;4983472;28;123940;-73
2023/06/23 10:55:36;;;;;;;12.45;8.95;;;;;;;28.35;45.60;102274.25;4985519;28;114271;-72
2023/06/23 10:58:11;;;;;;;11.95;9.30;;;;;;;28.37;45.50;102276.84;4982553;28;114199;-72
2023/06/23 11:00:38;;;;;;;;;;;;;;;28.40;46.71;102276.53;4991624;28;124264;-72
2023/06/23 11:03:08;;;;;;;11.18;9.07;;;;;;;28.49;45.84;102270.16;4989504;28;124245;-72
2023/06/23 11:05:40;;;;;;;11.70;9.00;;;;;;;28.51;45.30;102273.59;4974793;28;113806;-72
2023/06/23 11:08:12;;;;;;;11.35;8.52;;;;;;;28.56;44.71;102272.31;4991169;28;113932;-72
2023/06/23 11:10:50;;;;;;;11.05;8.75;;;;;;;28.59;44.84;102261.09;4978699;28;124835;-72
2023/06/23 11:13:17;;;;;;;10.93;8.30;;;;;;;28.57;44.13;102276.75;4988647;28;124985;-72
2023/06/23 11:15:53;;;;;;;11.30;7.75;;;;;;;28.54;44.21;102273.31;4973910;28;113853;-72
2023/06/23 11:18:22;;;;;;;8.95;7.40;;;;;;;28.60;44.99;102269.13;4990233;28;113972;-72
2023/06/23 11:20:50;;;;;;;8.82;6.93;;;;;;;28.69;44.88;102275.53;4990703;28;124699;-72